sensor_id;sensor_type;location;lat;lon;timestamp;pressure;altitude;pressure_sealevel;temperature;humidity
52693;BME280;68218;51.012;-1.648;2023-05-19T00:00:34;101776.63;;;12.75;80.03
52693;BME280;68218;51.012;-1.648;2023-05-19T00:03:01;101777.66;;;12.74;80.69
52693;BME280;68218;51.012;-1.648;2023-05-19T00:05:27;101767.91;;;12.73;81.11
52693;BME280;68218;51.012;-1.648;2023-05-19T00:07:57;101768.41;;;12.70;81.16
52693;BME280;68218;51.012;-1.648;2023-05-19T00:10:23;101769.34;;;12.64;81.24
52693;BME280;68218;51.012;-1.648;2023-05-19T00:12:50;101767.84;;;12.56;79.32
52693;BME280;68218;51.012;-1.648;2023-05-19T00:15:15;101768.75;;;12.62;79.50
52693;BME280;68218;51.012;-1.648;2023-05-19T00:17:41;101767.34;;;12.59;80.31
52693;BME280;68218;51.012;-1.648;2023-05-19T00:20:07;101771.25;;;12.51;80.73
52693;BME280;68218;51.012;-1.648;2023-05-19T00:22:33;101767.56;;;12.58;80.11
52693;BME280;68218;51.012;-1.648;2023-05-19T00:24:58;101768.97;;;12.72;79.91
52693;BME280;68218;51.012;-1.648;2023-05-19T00:27:23;101767.63;;;12.34;81.37
52693;BME280;68218;51.012;-1.648;2023-05-19T00:29:49;101765.84;;;12.28;82.15
52693;BME280;68218;51.012;-1.648;2023-05-19T00:32:14;101764.31;;;12.44;82.58
52693;BME280;68218;51.012;-1.648;2023-05-19T00:34:40;101767.47;;;12.52;81.72
52693;BME280;68218;51.012;-1.648;2023-05-19T00:37:05;101764.41;;;12.37;81.50
52693;BME280;68218;51.012;-1.648;2023-05-19T00:39:31;101766.66;;;12.52;81.44
52693;BME280;68218;51.012;-1.648;2023-05-19T00:41:56;101768.44;;;12.46;82.18
52693;BME280;68218;51.012;-1.648;2023-05-19T00:44:21;101774.19;;;12.50;80.80
52693;BME280;68218;51.012;-1.648;2023-05-19T00:46:47;101774.91;;;12.22;82.89
52693;BME280;68218;51.012;-1.648;2023-05-19T00:49:12;101771.50;;;12.38;81.28
52693;BME280;68218;51.012;-1.648;2023-05-19T00:51:39;101767.00;;;12.44;80.56
52693;BME280;68218;51.012;-1.648;2023-05-19T00:54:05;101772.41;;;12.44;81.50
52693;BME280;68218;51.012;-1.648;2023-05-19T00:56:31;101771.81;;;12.53;81.19
52693;BME280;68218;51.012;-1.648;2023-05-19T00:58:57;101768.91;;;12.43;81.49
52693;BME280;68218;51.012;-1.648;2023-05-19T01:01:23;101773.38;;;12.38;81.23
52693;BME280;68218;51.012;-1.648;2023-05-19T01:03:51;101768.91;;;12.20;82.18
52693;BME280;68218;51.012;-1.648;2023-05-19T01:06:16;101756.47;;;12.18;81.11
52693;BME280;68218;51.012;-1.648;2023-05-19T01:08:43;101768.56;;;12.16;81.80
52693;BME280;68218;51.012;-1.648;2023-05-19T01:11:08;101763.59;;;12.13;82.48
52693;BME280;68218;51.012;-1.648;2023-05-19T01:13:35;101753.13;;;12.16;82.71
52693;BME280;68218;51.012;-1.648;2023-05-19T01:19:30;101746.09;;;12.15;81.76
52693;BME280;68218;51.012;-1.648;2023-05-19T01:22:26;101756.91;;;12.15;82.15
52693;BME280;68218;51.012;-1.648;2023-05-19T01:32:57;101756.91;;;11.92;82.55
52693;BME280;68218;51.012;-1.648;2023-05-19T01:35:24;101739.41;;;11.94;82.22
52693;BME280;68218;51.012;-1.648;2023-05-19T01:37:55;101764.22;;;12.03;82.70
52693;BME280;68218;51.012;-1.648;2023-05-19T01:40:22;101763.38;;;12.14;82.15
52693;BME280;68218;51.012;-1.648;2023-05-19T01:42:51;101767.16;;;12.13;82.17
52693;BME280;68218;51.012;-1.648;2023-05-19T01:45:18;101769.97;;;11.95;82.48
52693;BME280;68218;51.012;-1.648;2023-05-19T01:47:49;101763.38;;;12.03;82.05
52693;BME280;68218;51.012;-1.648;2023-05-19T01:50:15;101762.56;;;12.02;82.01
52693;BME280;68218;51.012;-1.648;2023-05-19T01:52:40;101762.31;;;11.92;83.43
52693;BME280;68218;51.012;-1.648;2023-05-19T01:55:06;101768.59;;;11.86;83.00
52693;BME280;68218;51.012;-1.648;2023-05-19T02:01:11;101765.31;;;11.84;82.68
52693;BME280;68218;51.012;-1.648;2023-05-19T02:09:02;101751.06;;;11.65;84.14
52693;BME280;68218;51.012;-1.648;2023-05-19T02:11:51;101764.59;;;11.65;84.47
52693;BME280;68218;51.012;-1.648;2023-05-19T02:14:29;101758.94;;;11.66;83.99
52693;BME280;68218;51.012;-1.648;2023-05-19T02:16:56;101755.44;;;11.66;83.55
52693;BME280;68218;51.012;-1.648;2023-05-19T02:19:25;101756.13;;;11.61;84.12
52693;BME280;68218;51.012;-1.648;2023-05-19T02:21:50;101759.53;;;11.68;82.81
52693;BME280;68218;51.012;-1.648;2023-05-19T02:24:16;101749.44;;;11.64;83.89
52693;BME280;68218;51.012;-1.648;2023-05-19T02:26:42;101750.72;;;11.61;83.84
52693;BME280;68218;51.012;-1.648;2023-05-19T02:29:08;101749.19;;;11.53;84.10
52693;BME280;68218;51.012;-1.648;2023-05-19T02:31:33;101749.88;;;11.49;84.59
52693;BME280;68218;51.012;-1.648;2023-05-19T02:33:58;101734.59;;;11.54;83.82
52693;BME280;68218;51.012;-1.648;2023-05-19T02:36:24;101746.50;;;11.53;83.86
52693;BME280;68218;51.012;-1.648;2023-05-19T02:38:50;101733.34;;;11.57;84.04
52693;BME280;68218;51.012;-1.648;2023-05-19T02:41:16;101739.66;;;11.51;84.70
52693;BME280;68218;51.012;-1.648;2023-05-19T02:43:41;101736.81;;;11.46;84.87
52693;BME280;68218;51.012;-1.648;2023-05-19T02:46:07;101737.53;;;11.53;83.98
52693;BME280;68218;51.012;-1.648;2023-05-19T02:48:32;101746.19;;;11.31;85.02
52693;BME280;68218;51.012;-1.648;2023-05-19T02:50:57;101746.22;;;11.13;86.25
52693;BME280;68218;51.012;-1.648;2023-05-19T02:53:23;101750.84;;;10.94;87.23
52693;BME280;68218;51.012;-1.648;2023-05-19T02:55:48;101762.16;;;11.02;87.24
52693;BME280;68218;51.012;-1.648;2023-05-19T02:58:13;101756.34;;;11.17;86.02
52693;BME280;68218;51.012;-1.648;2023-05-19T03:00:39;101757.53;;;11.21;85.72
52693;BME280;68218;51.012;-1.648;2023-05-19T03:03:05;101755.66;;;11.22;85.87
52693;BME280;68218;51.012;-1.648;2023-05-19T03:05:30;101753.53;;;11.24;86.13
52693;BME280;68218;51.012;-1.648;2023-05-19T03:07:55;101754.97;;;11.27;85.59
52693;BME280;68218;51.012;-1.648;2023-05-19T03:10:21;101750.84;;;11.24;85.98
52693;BME280;68218;51.012;-1.648;2023-05-19T03:12:47;101745.31;;;11.19;86.06
52693;BME280;68218;51.012;-1.648;2023-05-19T03:15:12;101753.25;;;11.14;86.10
52693;BME280;68218;51.012;-1.648;2023-05-19T03:17:39;101753.13;;;11.09;86.38
52693;BME280;68218;51.012;-1.648;2023-05-19T03:20:05;101765.13;;;11.13;85.43
52693;BME280;68218;51.012;-1.648;2023-05-19T03:22:32;101742.81;;;11.05;85.56
52693;BME280;68218;51.012;-1.648;2023-05-19T03:24:57;101749.09;;;10.99;86.55
52693;BME280;68218;51.012;-1.648;2023-05-19T03:27:23;101736.50;;;10.93;86.25
52693;BME280;68218;51.012;-1.648;2023-05-19T03:29:48;101735.47;;;10.94;86.33
52693;BME280;68218;51.012;-1.648;2023-05-19T03:32:14;101734.75;;;10.87;86.93
52693;BME280;68218;51.012;-1.648;2023-05-19T03:34:39;101738.91;;;10.83;87.22
52693;BME280;68218;51.012;-1.648;2023-05-19T03:37:05;101740.13;;;10.87;87.17
52693;BME280;68218;51.012;-1.648;2023-05-19T03:39:30;101728.19;;;10.95;86.50
52693;BME280;68218;51.012;-1.648;2023-05-19T03:41:56;101732.63;;;10.89;86.66
52693;BME280;68218;51.012;-1.648;2023-05-19T03:44:21;101740.50;;;10.91;87.07
52693;BME280;68218;51.012;-1.648;2023-05-19T03:46:46;101736.13;;;10.90;86.70
52693;BME280;68218;51.012;-1.648;2023-05-19T03:49:12;101739.06;;;10.88;87.24
52693;BME280;68218;51.012;-1.648;2023-05-19T03:51:39;101734.44;;;10.95;87.19
52693;BME280;68218;51.012;-1.648;2023-05-19T03:54:05;101738.09;;;11.01;87.32
52693;BME280;68218;51.012;-1.648;2023-05-19T03:56:30;101736.56;;;11.05;87.30
52693;BME280;68218;51.012;-1.648;2023-05-19T03:58:56;101737.50;;;10.99;86.56
52693;BME280;68218;51.012;-1.648;2023-05-19T04:01:22;101744.06;;;11.03;86.54
52693;BME280;68218;51.012;-1.648;2023-05-19T04:03:47;101744.53;;;11.00;86.39
52693;BME280;68218;51.012;-1.648;2023-05-19T04:06:13;101747.56;;;10.92;87.46
52693;BME280;68218;51.012;-1.648;2023-05-19T04:08:39;101748.47;;;10.85;87.65
52693;BME280;68218;51.012;-1.648;2023-05-19T04:11:04;101738.75;;;10.66;88.22
52693;BME280;68218;51.012;-1.648;2023-05-19T04:13:33;101736.78;;;10.55;89.66
52693;BME280;68218;51.012;-1.648;2023-05-19T04:15:59;101732.41;;;10.72;88.77
52693;BME280;68218;51.012;-1.648;2023-05-19T04:18:25;101728.09;;;10.71;88.44
52693;BME280;68218;51.012;-1.648;2023-05-19T04:20:50;101718.47;;;10.75;88.12
52693;BME280;68218;51.012;-1.648;2023-05-19T04:23:16;101721.59;;;10.17;90.14
52693;BME280;68218;51.012;-1.648;2023-05-19T04:25:41;101722.53;;;10.04;90.65
52693;BME280;68218;51.012;-1.648;2023-05-19T04:28:07;101728.88;;;10.16;90.47
52693;BME280;68218;51.012;-1.648;2023-05-19T04:30:32;101747.34;;;10.38;89.07
52693;BME280;68218;51.012;-1.648;2023-05-19T04:32:58;101747.50;;;10.43;89.11
52693;BME280;68218;51.012;-1.648;2023-05-19T04:35:25;101735.38;;;10.34;89.89
52693;BME280;68218;51.012;-1.648;2023-05-19T04:37:51;101731.91;;;10.45;89.74
52693;BME280;68218;51.012;-1.648;2023-05-19T04:40:18;101726.81;;;10.55;89.27
52693;BME280;68218;51.012;-1.648;2023-05-19T04:42:45;101735.38;;;10.34;89.74
52693;BME280;68218;51.012;-1.648;2023-05-19T04:45:11;101729.91;;;10.15;90.44
52693;BME280;68218;51.012;-1.648;2023-05-19T04:47:38;101726.63;;;10.13;90.63
52693;BME280;68218;51.012;-1.648;2023-05-19T04:50:04;101729.72;;;9.91;91.73
52693;BME280;68218;51.012;-1.648;2023-05-19T04:52:31;101731.91;;;9.76;92.41
52693;BME280;68218;51.012;-1.648;2023-05-19T04:54:56;101738.63;;;9.92;91.68
52693;BME280;68218;51.012;-1.648;2023-05-19T04:57:22;101745.13;;;9.84;91.96
52693;BME280;68218;51.012;-1.648;2023-05-19T04:59:47;101743.19;;;9.91;92.18
52693;BME280;68218;51.012;-1.648;2023-05-19T05:02:13;101740.81;;;10.02;91.92
52693;BME280;68218;51.012;-1.648;2023-05-19T05:04:39;101738.34;;;10.00;92.36
52693;BME280;68218;51.012;-1.648;2023-05-19T05:07:07;101738.31;;;10.25;91.43
52693;BME280;68218;51.012;-1.648;2023-05-19T05:09:33;101735.41;;;10.27;91.26
52693;BME280;68218;51.012;-1.648;2023-05-19T05:11:59;101726.72;;;10.25;91.67
52693;BME280;68218;51.012;-1.648;2023-05-19T05:14:25;101737.91;;;10.47;90.48
52693;BME280;68218;51.012;-1.648;2023-05-19T05:16:51;101732.34;;;10.79;89.72
52693;BME280;68218;51.012;-1.648;2023-05-19T05:19:17;101743.78;;;10.93;89.09
52693;BME280;68218;51.012;-1.648;2023-05-19T05:21:42;101751.00;;;10.99;88.96
52693;BME280;68218;51.012;-1.648;2023-05-19T05:24:09;101744.44;;;11.06;89.03
52693;BME280;68218;51.012;-1.648;2023-05-19T05:26:34;101745.88;;;11.09;88.29
52693;BME280;68218;51.012;-1.648;2023-05-19T05:29:01;101747.19;;;11.18;88.65
52693;BME280;68218;51.012;-1.648;2023-05-19T05:31:26;101756.91;;;11.50;88.43
52693;BME280;68218;51.012;-1.648;2023-05-19T05:33:52;101759.22;;;11.76;87.70
52693;BME280;68218;51.012;-1.648;2023-05-19T05:36:17;101741.81;;;11.72;87.22
52693;BME280;68218;51.012;-1.648;2023-05-19T05:38:42;101745.09;;;11.74;87.19
52693;BME280;68218;51.012;-1.648;2023-05-19T05:41:08;101732.50;;;11.68;87.60
52693;BME280;68218;51.012;-1.648;2023-05-19T05:43:33;101750.28;;;11.76;87.37
52693;BME280;68218;51.012;-1.648;2023-05-19T05:45:59;101749.22;;;11.77;87.72
52693;BME280;68218;51.012;-1.648;2023-05-19T05:48:24;101750.88;;;11.78;88.22
52693;BME280;68218;51.012;-1.648;2023-05-19T05:50:51;101737.88;;;11.98;87.58
52693;BME280;68218;51.012;-1.648;2023-05-19T05:53:18;101735.16;;;12.10;86.81
52693;BME280;68218;51.012;-1.648;2023-05-19T05:55:44;101739.97;;;12.32;86.17
52693;BME280;68218;51.012;-1.648;2023-05-19T05:58:10;101733.69;;;12.55;85.99
52693;BME280;68218;51.012;-1.648;2023-05-19T06:00:36;101732.25;;;12.64;85.48
52693;BME280;68218;51.012;-1.648;2023-05-19T06:03:02;101727.16;;;12.80;83.74
52693;BME280;68218;51.012;-1.648;2023-05-19T06:05:28;101727.13;;;12.91;84.14
52693;BME280;68218;51.012;-1.648;2023-05-19T06:07:54;101718.97;;;12.63;82.89
52693;BME280;68218;51.012;-1.648;2023-05-19T06:10:20;101715.31;;;12.69;84.03
52693;BME280;68218;51.012;-1.648;2023-05-19T06:12:45;101730.63;;;12.63;83.47
52693;BME280;68218;51.012;-1.648;2023-05-19T06:15:11;101741.09;;;12.71;83.95
52693;BME280;68218;51.012;-1.648;2023-05-19T06:17:36;101737.53;;;12.71;83.92
52693;BME280;68218;51.012;-1.648;2023-05-19T06:20:02;101734.25;;;12.69;84.14
52693;BME280;68218;51.012;-1.648;2023-05-19T06:22:29;101732.28;;;12.93;85.17
52693;BME280;68218;51.012;-1.648;2023-05-19T06:24:55;101733.16;;;13.10;84.77
52693;BME280;68218;51.012;-1.648;2023-05-19T06:27:20;101730.34;;;13.05;83.92
52693;BME280;68218;51.012;-1.648;2023-05-19T06:29:46;101727.41;;;13.07;83.34
52693;BME280;68218;51.012;-1.648;2023-05-19T06:32:11;101713.81;;;13.19;84.19
52693;BME280;68218;51.012;-1.648;2023-05-19T06:34:36;101717.06;;;13.33;84.10
52693;BME280;68218;51.012;-1.648;2023-05-19T06:37:04;101723.22;;;13.45;83.25
52693;BME280;68218;51.012;-1.648;2023-05-19T06:39:30;101719.94;;;13.43;81.47
52693;BME280;68218;51.012;-1.648;2023-05-19T06:41:56;101738.44;;;13.46;81.93
52693;BME280;68218;51.012;-1.648;2023-05-19T06:44:21;101742.41;;;12.98;82.28
52693;BME280;68218;51.012;-1.648;2023-05-19T06:46:46;101744.53;;;12.96;82.97
52693;BME280;68218;51.012;-1.648;2023-05-19T06:49:12;101744.53;;;12.96;83.77
52693;BME280;68218;51.012;-1.648;2023-05-19T06:51:38;101749.13;;;13.24;83.19
52693;BME280;68218;51.012;-1.648;2023-05-19T06:54:03;101745.50;;;13.47;82.13
52693;BME280;68218;51.012;-1.648;2023-05-19T06:56:29;101754.47;;;13.47;81.75
52693;BME280;68218;51.012;-1.648;2023-05-19T06:58:54;101753.91;;;13.62;81.96
52693;BME280;68218;51.012;-1.648;2023-05-19T07:01:20;101749.63;;;13.83;82.04
52693;BME280;68218;51.012;-1.648;2023-05-19T07:03:45;101757.53;;;13.85;79.60
52693;BME280;68218;51.012;-1.648;2023-05-19T07:06:11;101752.66;;;13.87;79.50
52693;BME280;68218;51.012;-1.648;2023-05-19T07:08:37;101758.16;;;14.09;78.64
52693;BME280;68218;51.012;-1.648;2023-05-19T07:11:02;101756.66;;;14.01;79.20
52693;BME280;68218;51.012;-1.648;2023-05-19T07:13:28;101749.78;;;14.11;79.92
52693;BME280;68218;51.012;-1.648;2023-05-19T07:15:53;101750.03;;;13.92;79.30
52693;BME280;68218;51.012;-1.648;2023-05-19T07:18:20;101750.97;;;14.20;79.24
52693;BME280;68218;51.012;-1.648;2023-05-19T07:20:46;101746.03;;;14.56;77.92
52693;BME280;68218;51.012;-1.648;2023-05-19T07:23:11;101743.44;;;14.61;76.99
52693;BME280;68218;51.012;-1.648;2023-05-19T07:25:37;101740.34;;;14.74;76.37
52693;BME280;68218;51.012;-1.648;2023-05-19T07:28:02;101738.06;;;14.49;76.62
52693;BME280;68218;51.012;-1.648;2023-05-19T07:30:28;101738.47;;;14.58;76.51
52693;BME280;68218;51.012;-1.648;2023-05-19T07:32:54;101737.53;;;14.47;76.01
52693;BME280;68218;51.012;-1.648;2023-05-19T07:35:19;101737.59;;;14.52;76.82
52693;BME280;68218;51.012;-1.648;2023-05-19T07:37:47;101726.75;;;15.24;75.62
52693;BME280;68218;51.012;-1.648;2023-05-19T07:40:13;101738.28;;;15.36;73.61
52693;BME280;68218;51.012;-1.648;2023-05-19T07:42:38;101718.06;;;15.91;74.21
52693;BME280;68218;51.012;-1.648;2023-05-19T07:45:04;101727.97;;;16.56;70.53
52693;BME280;68218;51.012;-1.648;2023-05-19T07:47:30;101730.28;;;16.84;67.92
52693;BME280;68218;51.012;-1.648;2023-05-19T07:49:55;101736.59;;;16.42;68.60
52693;BME280;68218;51.012;-1.648;2023-05-19T07:52:21;101735.09;;;16.19;69.97
52693;BME280;68218;51.012;-1.648;2023-05-19T07:54:46;101737.81;;;16.19;70.70
52693;BME280;68218;51.012;-1.648;2023-05-19T07:57:12;101744.28;;;16.51;70.23
52693;BME280;68218;51.012;-1.648;2023-05-19T07:59:38;101739.72;;;16.72;68.64
52693;BME280;68218;51.012;-1.648;2023-05-19T08:02:04;101751.19;;;15.83;69.77
52693;BME280;68218;51.012;-1.648;2023-05-19T08:04:29;101752.69;;;15.69;71.39
52693;BME280;68218;51.012;-1.648;2023-05-19T08:06:55;101747.66;;;15.83;70.88
52693;BME280;68218;51.012;-1.648;2023-05-19T08:09:20;101738.28;;;16.01;70.65
52693;BME280;68218;51.012;-1.648;2023-05-19T08:11:46;101742.75;;;16.22;70.91
52693;BME280;68218;51.012;-1.648;2023-05-19T08:14:11;101739.38;;;16.05;70.57
52693;BME280;68218;51.012;-1.648;2023-05-19T08:16:37;101743.34;;;16.35;70.40
52693;BME280;68218;51.012;-1.648;2023-05-19T08:19:02;101745.97;;;16.14;68.20
52693;BME280;68218;51.012;-1.648;2023-05-19T08:21:29;101747.97;;;15.86;68.96
52693;BME280;68218;51.012;-1.648;2023-05-19T08:23:59;101749.34;;;15.29;72.24
52693;BME280;68218;51.012;-1.648;2023-05-19T08:26:25;101747.84;;;16.61;72.84
52693;BME280;68218;51.012;-1.648;2023-05-19T08:28:51;101742.41;;;16.61;67.84
52693;BME280;68218;51.012;-1.648;2023-05-19T08:31:17;101742.91;;;16.53;67.21
52693;BME280;68218;51.012;-1.648;2023-05-19T08:33:43;101734.69;;;17.21;69.69
52693;BME280;68218;51.012;-1.648;2023-05-19T08:36:08;101736.91;;;18.07;68.08
52693;BME280;68218;51.012;-1.648;2023-05-19T08:38:34;101742.00;;;18.44;64.60
52693;BME280;68218;51.012;-1.648;2023-05-19T08:40:59;101742.22;;;19.18;64.87
52693;BME280;68218;51.012;-1.648;2023-05-19T08:43:25;101738.72;;;18.42;60.77
52693;BME280;68218;51.012;-1.648;2023-05-19T08:45:51;101755.19;;;18.11;62.12
52693;BME280;68218;51.012;-1.648;2023-05-19T08:48:18;101743.19;;;17.82;64.37
52693;BME280;68218;51.012;-1.648;2023-05-19T08:51:09;101745.59;;;18.24;62.55
52693;BME280;68218;51.012;-1.648;2023-05-19T08:53:39;101742.06;;;18.19;61.82
52693;BME280;68218;51.012;-1.648;2023-05-19T08:56:11;101748.59;;;18.23;65.91
52693;BME280;68218;51.012;-1.648;2023-05-19T08:58:39;101744.38;;;18.66;65.32
52693;BME280;68218;51.012;-1.648;2023-05-19T09:01:13;101747.44;;;18.49;64.54
52693;BME280;68218;51.012;-1.648;2023-05-19T09:03:45;101751.09;;;18.14;63.46
52693;BME280;68218;51.012;-1.648;2023-05-19T09:06:11;101738.28;;;17.53;65.31
52693;BME280;68218;51.012;-1.648;2023-05-19T09:08:38;101745.66;;;17.57;66.38
52693;BME280;68218;51.012;-1.648;2023-05-19T09:11:03;101740.84;;;18.56;63.53
52693;BME280;68218;51.012;-1.648;2023-05-19T09:13:29;101738.84;;;18.87;62.25
52693;BME280;68218;51.012;-1.648;2023-05-19T09:15:56;101737.53;;;18.69;61.41
52693;BME280;68218;51.012;-1.648;2023-05-19T09:18:23;101735.75;;;19.04;62.58
52693;BME280;68218;51.012;-1.648;2023-05-19T09:20:48;101728.13;;;18.96;62.63
52693;BME280;68218;51.012;-1.648;2023-05-19T09:23:16;101730.47;;;19.18;65.56
52693;BME280;68218;51.012;-1.648;2023-05-19T09:25:49;101723.56;;;19.25;64.90
52693;BME280;68218;51.012;-1.648;2023-05-19T09:28:22;101722.00;;;18.54;64.96
52693;BME280;68218;51.012;-1.648;2023-05-19T09:30:47;101720.25;;;18.89;61.77
52693;BME280;68218;51.012;-1.648;2023-05-19T09:33:18;101714.94;;;19.77;61.73
52693;BME280;68218;51.012;-1.648;2023-05-19T09:35:46;101709.75;;;18.46;63.68
52693;BME280;68218;51.012;-1.648;2023-05-19T09:38:16;101702.88;;;19.14;63.45
52693;BME280;68218;51.012;-1.648;2023-05-19T09:40:42;101709.28;;;18.94;60.94
52693;BME280;68218;51.012;-1.648;2023-05-19T09:43:08;101704.28;;;18.46;64.13
52693;BME280;68218;51.012;-1.648;2023-05-19T09:45:34;101703.88;;;18.74;63.62
52693;BME280;68218;51.012;-1.648;2023-05-19T09:48:02;101700.66;;;19.51;63.88
52693;BME280;68218;51.012;-1.648;2023-05-19T09:50:28;101695.28;;;19.70;62.12
52693;BME280;68218;51.012;-1.648;2023-05-19T09:52:55;101695.44;;;19.83;59.39
52693;BME280;68218;51.012;-1.648;2023-05-19T09:55:24;101690.25;;;20.79;59.75
52693;BME280;68218;51.012;-1.648;2023-05-19T09:57:53;101689.31;;;21.02;57.71
52693;BME280;68218;51.012;-1.648;2023-05-19T10:00:19;101687.69;;;20.39;61.21
52693;BME280;68218;51.012;-1.648;2023-05-19T10:02:46;101696.91;;;20.72;55.76
52693;BME280;68218;51.012;-1.648;2023-05-19T10:05:13;101699.44;;;21.73;55.33
52693;BME280;68218;51.012;-1.648;2023-05-19T10:07:42;101698.75;;;20.77;59.14
52693;BME280;68218;51.012;-1.648;2023-05-19T10:10:11;101702.97;;;22.20;55.68
52693;BME280;68218;51.012;-1.648;2023-05-19T10:12:38;101697.34;;;21.50;54.00
52693;BME280;68218;51.012;-1.648;2023-05-19T10:15:10;101694.03;;;21.35;56.76
52693;BME280;68218;51.012;-1.648;2023-05-19T10:17:40;101699.81;;;22.40;56.62
52693;BME280;68218;51.012;-1.648;2023-05-19T10:22:33;101695.53;;;23.66;50.81
52693;BME280;68218;51.012;-1.648;2023-05-19T10:24:58;101690.22;;;23.47;50.04
52693;BME280;68218;51.012;-1.648;2023-05-19T10:27:24;101698.72;;;22.92;50.25
52693;BME280;68218;51.012;-1.648;2023-05-19T10:29:54;101696.75;;;20.83;53.13
52693;BME280;68218;51.012;-1.648;2023-05-19T10:32:27;101701.50;;;20.96;50.94
52693;BME280;68218;51.012;-1.648;2023-05-19T10:40:10;101696.44;;;21.03;54.07
52693;BME280;68218;51.012;-1.648;2023-05-19T10:45:45;101687.56;;;20.73;53.27
52693;BME280;68218;51.012;-1.648;2023-05-19T10:48:15;101695.50;;;19.78;56.81
52693;BME280;68218;51.012;-1.648;2023-05-19T10:50:45;101688.91;;;20.52;54.56
52693;BME280;68218;51.012;-1.648;2023-05-19T10:53:15;101689.16;;;19.83;55.55
52693;BME280;68218;51.012;-1.648;2023-05-19T10:55:51;101682.03;;;19.82;54.61
52693;BME280;68218;51.012;-1.648;2023-05-19T10:58:38;101680.22;;;19.38;54.29
52693;BME280;68218;51.012;-1.648;2023-05-19T11:01:30;101684.44;;;18.85;54.76
52693;BME280;68218;51.012;-1.648;2023-05-19T11:03:56;101680.19;;;18.59;54.85
52693;BME280;68218;51.012;-1.648;2023-05-19T11:06:26;101684.66;;;18.34;56.91
52693;BME280;68218;51.012;-1.648;2023-05-19T11:11:22;101681.44;;;18.22;57.68
52693;BME280;68218;51.012;-1.648;2023-05-19T11:13:54;101675.47;;;17.99;59.91
52693;BME280;68218;51.012;-1.648;2023-05-19T11:16:30;101674.69;;;17.78;61.78
52693;BME280;68218;51.012;-1.648;2023-05-19T11:18:59;101671.97;;;17.68;60.82
52693;BME280;68218;51.012;-1.648;2023-05-19T11:21:40;101675.00;;;17.56;61.33
52693;BME280;68218;51.012;-1.648;2023-05-19T11:24:07;101663.53;;;17.54;61.91
52693;BME280;68218;51.012;-1.648;2023-05-19T11:26:40;101664.63;;;17.53;61.08
52693;BME280;68218;51.012;-1.648;2023-05-19T11:29:09;101671.72;;;17.54;61.91
52693;BME280;68218;51.012;-1.648;2023-05-19T11:31:36;101680.19;;;17.52;62.04
52693;BME280;68218;51.012;-1.648;2023-05-19T11:34:03;101664.09;;;17.51;62.79
52693;BME280;68218;51.012;-1.648;2023-05-19T11:36:31;101666.00;;;17.55;63.05
52693;BME280;68218;51.012;-1.648;2023-05-19T11:38:58;101658.09;;;17.33;64.16
52693;BME280;68218;51.012;-1.648;2023-05-19T11:41:24;101660.28;;;17.41;65.07
52693;BME280;68218;51.012;-1.648;2023-05-19T11:43:50;101654.28;;;17.34;65.55
52693;BME280;68218;51.012;-1.648;2023-05-19T11:46:15;101651.56;;;17.29;65.94
52693;BME280;68218;51.012;-1.648;2023-05-19T11:48:46;101648.25;;;17.32;66.38
52693;BME280;68218;51.012;-1.648;2023-05-19T11:51:11;101653.44;;;17.44;65.85
52693;BME280;68218;51.012;-1.648;2023-05-19T11:53:37;101651.28;;;17.62;66.40
52693;BME280;68218;51.012;-1.648;2023-05-19T11:56:03;101647.16;;;17.64;63.49
52693;BME280;68218;51.012;-1.648;2023-05-19T11:58:28;101645.25;;;17.65;63.52
52693;BME280;68218;51.012;-1.648;2023-05-19T12:00:54;101642.22;;;17.66;63.26
52693;BME280;68218;51.012;-1.648;2023-05-19T12:03:22;101634.88;;;17.72;62.27
52693;BME280;68218;51.012;-1.648;2023-05-19T12:05:52;101640.59;;;17.91;60.14
52693;BME280;68218;51.012;-1.648;2023-05-19T12:08:18;101635.03;;;18.17;59.66
52693;BME280;68218;51.012;-1.648;2023-05-19T12:10:47;101621.34;;;18.77;57.18
52693;BME280;68218;51.012;-1.648;2023-05-19T12:13:13;101607.53;;;18.58;58.29
52693;BME280;68218;51.012;-1.648;2023-05-19T12:15:39;101629.75;;;18.90;57.61
52693;BME280;68218;51.012;-1.648;2023-05-19T12:18:04;101626.00;;;19.45;59.84
52693;BME280;68218;51.012;-1.648;2023-05-19T12:20:31;101623.28;;;19.45;54.92
52693;BME280;68218;51.012;-1.648;2023-05-19T12:22:57;101622.94;;;19.17;54.37
52693;BME280;68218;51.012;-1.648;2023-05-19T12:25:24;101616.00;;;19.59;56.89
52693;BME280;68218;51.012;-1.648;2023-05-19T12:27:50;101618.13;;;19.09;55.62
52693;BME280;68218;51.012;-1.648;2023-05-19T12:30:17;101618.31;;;19.47;57.15
52693;BME280;68218;51.012;-1.648;2023-05-19T12:32:45;101624.94;;;19.41;55.22
52693;BME280;68218;51.012;-1.648;2023-05-19T12:35:11;101624.78;;;18.93;58.30
52693;BME280;68218;51.012;-1.648;2023-05-19T12:37:40;101621.88;;;19.18;58.20
52693;BME280;68218;51.012;-1.648;2023-05-19T12:40:07;101611.91;;;18.53;59.26
52693;BME280;68218;51.012;-1.648;2023-05-19T12:42:33;101619.69;;;18.76;59.03
52693;BME280;68218;51.012;-1.648;2023-05-19T12:45:01;101608.44;;;19.22;57.94
52693;BME280;68218;51.012;-1.648;2023-05-19T12:47:32;101618.38;;;18.68;59.48
52693;BME280;68218;51.012;-1.648;2023-05-19T12:52:25;101618.34;;;18.73;59.37
52693;BME280;68218;51.012;-1.648;2023-05-19T12:55:03;101626.59;;;18.68;57.50
52693;BME280;68218;51.012;-1.648;2023-05-19T12:57:36;101628.53;;;18.57;57.29
52693;BME280;68218;51.012;-1.648;2023-05-19T13:00:13;101616.44;;;18.74;59.12
52693;BME280;68218;51.012;-1.648;2023-05-19T13:03:02;101624.91;;;18.72;60.15
52693;BME280;68218;51.012;-1.648;2023-05-19T13:05:37;101628.75;;;18.11;61.83
52693;BME280;68218;51.012;-1.648;2023-05-19T13:08:08;101626.19;;;18.35;61.87
52693;BME280;68218;51.012;-1.648;2023-05-19T13:10:36;101615.81;;;18.42;61.65
52693;BME280;68218;51.012;-1.648;2023-05-19T13:13:02;101615.84;;;18.37;62.43
52693;BME280;68218;51.012;-1.648;2023-05-19T13:15:30;101615.28;;;18.35;64.04